Time;durP1;ratioP1;P1;durP2;ratioP2;P2;SDS_P1;SDS_P2;PMS_P1;PMS_P2;Temp;Humidity;BMP_temperature;BMP_pressure;BME280_temperature;BME280_humidity;BME280_pressure;Samples;Min_cycle;Max_cycle;Signal;HPM_P1;HPM_P2
2022/08/15 00:01:07;;;;;;;9.52;8.48;;;22.90;95.10;;;;;;5051614;28;20033;-82
2022/08/15 00:03:38;;;;;;;10.07;7.93;;;22.90;95.10;;;;;;5051565;28;20049;-82
2022/08/15 00:06:07;;;;;;;8.90;8.00;;;22.90;95.10;;;;;;5051824;28;20397;-82
2022/08/15 00:08:37;;;;;;;10.20;8.60;;;22.90;95.20;;;;;;5018809;28;20124;-82
2022/08/15 00:11:07;;;;;;;9.77;8.50;;;22.80;95.20;;;;;;5018261;28;20041;-82
2022/08/15 00:13:34;;;;;;;9.77;8.75;;;22.90;95.20;;;;;;5051625;28;20053;-82
2022/08/15 00:16:00;;;;;;;10.23;8.90;;;22.80;95.20;;;;;;5051701;28;20041;-82
2022/08/15 00:18:28;;;;;;;10.75;8.75;;;22.80;95.10;;;;;;5035145;28;20042;-82
2022/08/15 00:20:55;;;;;;;9.65;8.75;;;22.80;95.10;;;;;;5034817;28;20052;-82
2022/08/15 00:23:23;;;;;;;8.90;8.00;;;22.80;95.10;;;;;;5034761;28;20050;-82
2022/08/15 00:25:51;;;;;;;9.48;8.48;;;22.80;95.10;;;;;;5034832;28;20433;-83
2022/08/15 00:28:17;;;;;;;9.63;8.73;;;22.80;95.20;;;;;;5034536;28;20522;-82
2022/08/15 00:30:45;;;;;;;9.75;8.73;;;22.70;95.30;;;;;;5034932;28;20041;-82
2022/08/15 00:33:12;;;;;;;9.18;8.25;;;22.70;95.40;;;;;;5052523;28;20033;-82
2022/08/15 00:35:44;;;;;;;9.68;8.52;;;22.70;95.30;;;;;;5051320;28;20497;-82
2022/08/15 00:38:15;;;;;;;10.13;8.57;;;22.60;95.40;;;;;;5034668;28;20048;-82
2022/08/15 00:43:41;;;;;;;10.55;9.45;;;22.50;95.60;;;;;;5034735;28;20050;-82
2022/08/15 00:46:09;;;;;;;11.77;9.25;;;22.50;95.80;;;;;;5032926;28;20061;-78
2022/08/15 00:48:41;;;;;;;10.13;9.13;;;22.40;96.00;;;;;;5034263;28;20069;-77
2022/08/15 00:51:15;;;;;;;9.60;8.60;;;22.40;96.10;;;;;;5033780;28;20104;-78
2022/08/15 00:53:45;;;;;;;10.93;9.00;;;22.40;96.20;;;;;;5033581;28;20367;-78
2022/08/15 00:56:12;;;;;;;11.85;8.60;;;22.40;96.30;;;;;;5050576;28;20041;-78
2022/08/15 00:58:39;;;;;;;10.88;8.93;;;22.30;96.30;;;;;;5050511;28;20037;-78
2022/08/15 01:01:06;;;;;;;8.95;8.05;;;22.40;96.50;;;;;;5034036;28;20592;-78
2022/08/15 01:03:35;;;;;;;9.25;8.30;;;22.30;96.40;;;;;;5050119;28;20505;-78
2022/08/15 01:06:03;;;;;;;9.77;8.77;;;22.40;96.40;;;;;;5034362;28;20405;-78
2022/08/15 01:08:33;;;;;;;10.07;8.93;;;22.30;96.60;;;;;;5050146;28;20068;-78
2022/08/15 01:11:03;;;;;;;9.90;8.90;;;22.40;96.70;;;;;;5033957;28;20041;-78
2022/08/15 01:13:32;;;;;;;9.98;8.98;;;22.30;96.80;;;;;;5033415;28;20045;-78
2022/08/15 01:15:57;;;;;;;10.50;9.45;;;22.30;96.80;;;;;;5049728;28;20042;-78
2022/08/15 01:18:23;;;;;;;10.88;9.63;;;22.40;96.90;;;;;;5016885;28;20036;-78
2022/08/15 01:20:53;;;;;;;10.63;9.52;;;22.30;96.90;;;;;;5017023;28;20092;-78
2022/08/15 01:23:54;;;;;;;10.73;9.63;;;22.30;97.00;;;;;;5033287;28;20053;-77
2022/08/15 01:26:21;;;;;;;11.15;10.02;;;22.30;97.10;;;;;;4983019;28;20057;-78
2022/08/15 01:28:47;;;;;;;10.57;9.45;;;22.30;97.10;;;;;;5033134;28;20056;-78
2022/08/15 01:31:17;;;;;;;11.18;10.18;;;22.30;97.10;;;;;;5016765;28;20042;-78
2022/08/15 01:33:46;;;;;;;10.88;9.77;;;22.30;97.20;;;;;;5032724;28;20490;-78
2022/08/15 01:36:12;;;;;;;10.77;9.07;;;22.30;97.30;;;;;;5049433;28;20490;-78
2022/08/15 01:38:42;;;;;;;9.55;8.65;;;22.30;97.30;;;;;;5000269;28;20037;-78
2022/08/15 01:41:33;;;;;;;9.45;8.55;;;22.20;97.30;;;;;;5049625;28;20038;-82
2022/08/15 01:44:20;;;;;;;11.00;8.88;;;22.20;97.40;;;;;;5050179;28;20108;-82
2022/08/15 01:47:03;;;;;;;11.43;9.32;;;22.20;97.50;;;;;;5032944;28;20057;-82
2022/08/15 01:49:35;;;;;;;10.48;9.48;;;22.20;97.50;;;;;;5033129;28;20091;-82
2022/08/15 01:52:04;;;;;;;9.73;8.15;;;22.20;98.00;;;;;;5049813;28;20511;-82
2022/08/15 01:54:41;;;;;;;9.95;8.95;;;22.20;98.10;;;;;;5033700;28;20203;-82
2022/08/15 01:57:08;;;;;;;9.75;8.65;;;22.20;98.30;;;;;;5049808;28;20045;-82
2022/08/15 01:59:34;;;;;;;10.07;8.45;;;22.20;98.50;;;;;;5050961;28;20430;-82
2022/08/15 02:02:10;;;;;;;10.52;8.57;;;22.20;98.60;;;;;;5050196;28;20049;-82
2022/08/15 02:04:39;;;;;;;9.93;8.93;;;22.20;98.60;;;;;;5049523;28;20124;-82
2022/08/15 02:07:12;;;;;;;9.73;8.82;;;22.20;98.60;;;;;;5049863;28;20037;-82
2022/08/15 02:09:40;;;;;;;10.93;8.48;;;22.20;98.70;;;;;;5048794;28;20045;-78
2022/08/15 02:12:08;;;;;;;11.50;9.00;;;22.20;98.90;;;;;;5049295;28;20045;-78
2022/08/15 02:14:35;;;;;;;9.68;8.68;;;22.10;98.90;;;;;;4999380;28;20091;-78
2022/08/15 02:17:03;;;;;;;10.77;9.68;;;22.20;99.10;;;;;;5031792;28;20112;-78
2022/08/15 02:19:29;;;;;;;9.80;8.75;;;22.10;99.20;;;;;;5000432;28;20041;-82
2022/08/15 02:21:55;;;;;;;10.05;9.05;;;22.10;99.40;;;;;;5034444;28;20041;-82
2022/08/15 02:24:24;;;;;;;10.50;9.45;;;22.10;99.40;;;;;;5033761;28;20394;-82
2022/08/15 02:26:52;;;;;;;9.50;8.55;;;22.00;99.60;;;;;;5033038;28;20048;-82
2022/08/15 02:29:20;;;;;;;9.88;8.98;;;22.00;99.60;;;;;;5050580;28;20041;-82
2022/08/15 02:31:46;;;;;;;10.90;9.27;;;22.00;99.80;;;;;;5049996;28;20116;-82
2022/08/15 02:34:13;;;;;;;11.25;10.13;;;22.00;99.80;;;;;;5032783;28;20077;-82
2022/08/15 02:36:39;;;;;;;10.13;9.13;;;22.00;99.80;;;;;;5016593;28;20038;-82
2022/08/15 02:39:07;;;;;;;11.10;9.48;;;22.00;99.80;;;;;;5016229;28;20052;-82
2022/08/15 02:41:37;;;;;;;12.93;9.82;;;22.00;99.70;;;;;;5032658;28;20052;-82
2022/08/15 02:44:05;;;;;;;11.40;10.15;;;22.00;99.70;;;;;;5049147;28;20509;-82
2022/08/15 02:46:30;;;;;;;11.27;9.75;;;21.90;99.70;;;;;;5032765;28;20417;-83
2022/08/15 02:48:58;;;;;;;11.68;9.60;;;21.90;99.70;;;;;;5016346;28;20051;-82
2022/08/15 02:51:26;;;;;;;10.32;9.25;;;21.90;99.70;;;;;;4999904;28;20124;-82
2022/08/15 02:53:54;;;;;;;10.40;9.02;;;21.90;99.80;;;;;;5032340;28;20080;-82
2022/08/15 02:56:26;;;;;;;10.80;9.70;;;21.90;99.70;;;;;;5048905;28;20045;-83
2022/08/15 02:58:52;;;;;;;9.40;8.50;;;21.90;99.80;;;;;;5032601;28;20389;-82
2022/08/15 03:01:20;;;;;;;10.80;9.10;;;21.90;99.80;;;;;;4999530;28;20044;-82
2022/08/15 03:03:51;;;;;;;9.50;8.52;;;21.90;99.90;;;;;;5032502;28;20156;-82
2022/08/15 03:06:22;;;;;;;11.07;9.13;;;21.80;99.90;;;;;;5049282;28;20052;-82
2022/08/15 03:08:48;;;;;;;10.48;9.48;;;21.80;99.90;;;;;;5034753;28;20045;-82
2022/08/15 03:11:14;;;;;;;9.77;8.77;;;21.80;99.90;;;;;;5003908;28;20128;-82
2022/08/15 03:13:40;;;;;;;11.80;9.50;;;21.80;99.90;;;;;;5020003;28;20037;-82
2022/08/15 03:16:09;;;;;;;10.43;9.32;;;21.70;99.90;;;;;;5036599;28;20038;-82
2022/08/15 03:18:36;;;;;;;9.82;8.93;;;21.70;99.90;;;;;;5072219;28;20037;-81
2022/08/15 03:21:06;;;;;;;10.10;9.07;;;21.70;99.90;;;;;;5057489;28;20033;-81
2022/08/15 03:23:32;;;;;;;10.60;9.45;;;21.60;99.90;;;;;;5071196;28;20042;-82
2022/08/15 03:26:01;;;;;;;10.30;8.35;;;21.50;99.90;;;;;;5073150;28;20040;-82
2022/08/15 03:28:31;;;;;;;9.30;8.40;;;21.60;99.90;;;;;;5056331;28;20049;-81
2022/08/15 03:31:00;;;;;;;12.40;8.63;;;21.50;99.90;;;;;;5062950;28;20055;-82
2022/08/15 03:33:27;;;;;;;12.70;9.30;;;21.50;99.90;;;;;;5037820;28;20071;-82
2022/08/15 03:35:54;;;;;;;10.02;9.02;;;21.50;99.90;;;;;;5036567;28;20052;-82
2022/08/15 03:38:20;;;;;;;9.73;8.65;;;21.50;99.90;;;;;;5035853;28;20040;-82
2022/08/15 03:40:48;;;;;;;10.45;8.82;;;21.40;99.90;;;;;;5037207;28;20049;-82
2022/08/15 03:43:15;;;;;;;10.82;9.15;;;21.40;99.90;;;;;;5035625;28;20102;-82
2022/08/15 03:45:51;;;;;;;11.48;10.32;;;21.40;99.90;;;;;;5035857;28;20041;-82
2022/08/15 03:48:22;;;;;;;11.20;10.00;;;21.30;99.90;;;;;;5036094;28;20088;-82
2022/08/15 03:50:50;;;;;;;11.98;10.48;;;21.30;99.90;;;;;;5036353;28;20053;-82
2022/08/15 03:53:16;;;;;;;10.98;9.57;;;21.30;99.90;;;;;;5036750;28;20052;-82
2022/08/15 03:55:42;;;;;;;10.90;9.80;;;21.30;99.90;;;;;;5053290;28;20037;-82
2022/08/15 03:58:08;;;;;;;11.30;10.20;;;21.20;99.90;;;;;;5036786;28;20041;-82
2022/08/15 04:00:43;;;;;;;10.15;9.15;;;21.20;99.90;;;;;;5037686;28;20037;-82
2022/08/15 04:03:15;;;;;;;11.77;10.65;;;21.10;99.90;;;;;;5053053;28;20041;-82
2022/08/15 04:05:44;;;;;;;12.18;10.98;;;21.10;99.90;;;;;;5036075;28;20056;-82
2022/08/15 04:08:13;;;;;;;10.95;9.82;;;21.10;99.90;;;;;;5053740;28;20045;-82
2022/08/15 04:10:39;;;;;;;11.63;10.13;;;21.10;99.90;;;;;;5020615;28;20050;-83
2022/08/15 04:13:07;;;;;;;11.43;10.15;;;21.00;99.90;;;;;;5036120;28;20037;-82
2022/08/15 04:15:33;;;;;;;10.32;9.23;;;21.00;99.90;;;;;;5019652;28;20033;-82
2022/08/15 04:18:00;;;;;;;10.25;9.25;;;21.00;99.90;;;;;;5019907;28;20041;-82
2022/08/15 04:20:26;;;;;;;10.70;9.70;;;21.00;99.90;;;;;;5019379;28;20045;-82
2022/08/15 04:22:52;;;;;;;11.57;9.90;;;21.00;99.90;;;;;;5019206;28;20519;-82
2022/08/15 04:25:21;;;;;;;10.90;9.75;;;21.00;99.90;;;;;;5002536;28;20034;-83
2022/08/15 04:27:54;;;;;;;12.05;10.02;;;21.00;99.90;;;;;;5036062;28;20046;-78
2022/08/15 04:30:22;;;;;;;16.30;10.68;;;20.90;99.90;;;;;;5034841;28;20050;-77
2022/08/15 04:32:49;;;;;;;25.70;11.23;;;20.90;99.90;;;;;;5035284;28;20080;-78
2022/08/15 04:35:15;;;;;;;17.15;11.80;;;20.90;99.90;;;;;;5034512;28;20120;-77
2022/08/15 04:37:41;;;;;;;12.00;10.65;;;20.90;99.90;;;;;;5018010;28;20037;-77
2022/08/15 04:40:14;;;;;;;12.93;10.98;;;20.90;99.90;;;;;;5018508;28;20405;-78
2022/08/15 04:42:53;;;;;;;15.30;11.10;;;20.80;99.90;;;;;;5035701;28;20143;-82
2022/08/15 04:45:21;;;;;;;13.45;11.07;;;20.80;99.90;;;;;;5035376;28;20072;-82
2022/08/15 04:47:47;;;;;;;12.48;11.27;;;20.80;99.90;;;;;;5035249;28;20058;-83
2022/08/15 04:50:13;;;;;;;14.85;11.25;;;20.80;99.90;;;;;;5036695;28;20501;-82
2022/08/15 04:52:46;;;;;;;14.23;11.15;;;20.70;99.90;;;;;;5018880;28;20040;-82
2022/08/15 04:55:13;;;;;;;11.68;10.57;;;20.70;99.90;;;;;;5019359;28;20076;-82
2022/08/15 04:57:39;;;;;;;14.52;13.02;;;20.70;99.90;;;;;;5036255;28;20042;-78
2022/08/15 05:00:09;;;;;;;14.40;12.90;;;20.70;99.90;;;;;;5034747;28;20125;-78
2022/08/15 05:02:35;;;;;;;15.00;11.77;;;20.70;99.90;;;;;;5035089;28;20445;-78
2022/08/15 05:05:02;;;;;;;15.82;13.55;;;20.60;99.90;;;;;;5017981;28;20563;-78
2022/08/15 05:07:29;;;;;;;13.85;11.32;;;20.60;99.90;;;;;;5034719;28;20048;-78
2022/08/15 05:09:55;;;;;;;13.20;11.18;;;20.60;99.90;;;;;;5034338;28;20375;-83
2022/08/15 05:12:21;;;;;;;13.68;12.05;;;20.60;99.90;;;;;;5018619;28;20073;-82
2022/08/15 05:14:47;;;;;;;14.52;11.68;;;20.60;99.90;;;;;;5051588;28;20655;-78
2022/08/15 05:17:13;;;;;;;14.90;11.27;;;20.70;99.90;;;;;;5018518;28;20045;-78
2022/08/15 05:19:39;;;;;;;13.13;11.18;;;20.60;99.90;;;;;;5017752;28;20489;-78
2022/08/15 05:22:05;;;;;;;12.13;10.88;;;20.70;99.90;;;;;;5034277;28;20053;-78
2022/08/15 05:24:30;;;;;;;13.50;11.85;;;20.70;99.90;;;;;;5034390;28;20053;-78
2022/08/15 05:26:56;;;;;;;12.75;11.38;;;20.70;99.90;;;;;;5001592;28;20397;-78
2022/08/15 05:29:22;;;;;;;12.38;10.80;;;20.80;99.90;;;;;;5000985;28;20041;-78
2022/08/15 05:31:48;;;;;;;12.23;11.00;;;20.80;99.90;;;;;;5049274;28;20048;-78
2022/08/15 05:34:15;;;;;;;11.93;10.73;;;20.80;99.90;;;;;;5017114;28;20436;-79
2022/08/15 05:36:41;;;;;;;12.27;11.07;;;20.80;99.90;;;;;;5033337;28;20476;-78
2022/08/15 05:39:19;;;;;;;12.32;11.13;;;20.90;99.90;;;;;;5016699;28;20034;-79
2022/08/15 05:41:50;;;;;;;12.27;10.98;;;20.90;99.90;;;;;;5033451;28;20040;-78
2022/08/15 05:44:18;;;;;;;14.55;11.48;;;20.90;99.90;;;;;;5034145;28;20041;-78
2022/08/15 05:47:14;;;;;;;12.57;11.27;;;20.90;99.90;;;;;;5033741;28;20116;-78
2022/08/15 05:49:46;;;;;;;11.90;10.18;;;20.90;99.90;;;;;;5050437;28;20416;-78
2022/08/15 05:52:34;;;;;;;12.18;10.98;;;21.00;99.90;;;;;;5033623;28;20095;-78
2022/08/15 05:55:21;;;;;;;12.35;10.57;;;21.00;99.90;;;;;;5034122;28;20076;-78
2022/08/15 05:58:05;;;;;;;12.95;11.52;;;21.10;99.90;;;;;;5033635;28;20179;-78
2022/08/15 06:00:31;;;;;;;13.20;11.80;;;21.10;99.90;;;;;;5033520;28;20045;-78
2022/08/15 06:03:08;;;;;;;12.32;11.13;;;21.20;99.90;;;;;;5017069;28;20148;-79
2022/08/15 06:05:45;;;;;;;12.60;11.30;;;21.20;99.90;;;;;;5032932;28;20498;-78
2022/08/15 06:08:17;;;;;;;12.52;11.10;;;21.30;99.90;;;;;;5033217;28;20044;-78
2022/08/15 06:10:51;;;;;;;13.40;11.20;;;21.40;99.90;;;;;;5049058;28;20089;-79
2022/08/15 06:13:27;;;;;;;12.88;11.45;;;21.40;99.90;;;;;;5032640;28;20042;-79
2022/08/15 06:16:06;;;;;;;14.20;12.48;;;21.40;99.90;;;;;;5032953;28;20619;-79
2022/08/15 06:18:35;;;;;;;14.02;11.93;;;21.50;99.90;;;;;;5033533;28;20048;-78
2022/08/15 06:21:15;;;;;;;14.80;11.82;;;21.50;99.90;;;;;;5033634;28;20051;-78
2022/08/15 06:24:08;;;;;;;12.40;11.10;;;21.60;99.90;;;;;;5032185;28;20037;-79
2022/08/15 06:26:52;;;;;;;12.68;11.40;;;21.70;99.90;;;;;;5033061;28;20045;-78
2022/08/15 06:29:56;;;;;;;12.70;11.35;;;21.80;99.90;;;;;;5033121;28;20124;-78
2022/08/15 06:32:45;;;;;;;13.38;11.93;;;21.90;99.90;;;;;;5032780;28;20040;-79
2022/08/15 06:35:24;;;;;;;12.77;11.48;;;22.00;99.90;;;;;;5033095;28;20087;-79
2022/08/15 06:38:19;;;;;;;14.30;12.80;;;22.00;99.90;;;;;;5049625;28;20055;-79
2022/08/15 06:41:01;;;;;;;14.27;12.52;;;22.10;99.90;;;;;;5033043;28;20334;-79
2022/08/15 06:43:27;;;;;;;18.45;12.95;;;22.10;99.90;;;;;;5036449;28;20133;-78
2022/08/15 06:45:56;;;;;;;14.73;12.45;;;22.10;99.90;;;;;;5020622;28;20076;-83
2022/08/15 06:48:28;;;;;;;13.55;12.25;;;22.10;99.90;;;;;;5037321;28;20055;-83
2022/08/15 06:51:00;;;;;;;14.23;12.73;;;22.10;99.90;;;;;;5038737;28;20048;-83
2022/08/15 06:53:36;;;;;;;14.90;12.65;;;22.10;99.90;;;;;;5038736;28;20046;-83
2022/08/15 06:56:16;;;;;;;;;;;22.10;99.90;;;;;;5038036;28;20081;-83
2022/08/15 06:58:56;;;;;;;12.88;11.57;;;22.10;99.90;;;;;;5020537;28;19975;-83
2022/08/15 07:01:48;;;;;;;12.77;11.35;;;22.20;99.90;;;;;;5037207;28;20052;-83
2022/08/15 07:04:30;;;;;;;14.38;11.98;;;22.20;99.90;;;;;;5037758;28;20037;-83
2022/08/15 07:07:37;;;;;;;13.93;12.52;;;22.30;99.90;;;;;;5053585;28;20520;-83
2022/08/15 07:10:05;;;;;;;13.20;11.80;;;22.30;99.90;;;;;;5037521;28;20041;-83
2022/08/15 07:12:53;;;;;;;12.73;11.32;;;22.40;99.90;;;;;;5037471;28;20037;-83
2022/08/15 07:15:26;;;;;;;12.30;11.02;;;22.50;99.90;;;;;;5055312;28;20041;-83
2022/08/15 07:17:58;;;;;;;18.25;11.88;;;22.60;99.90;;;;;;5020085;28;20420;-83
2022/08/15 07:20:24;;;;;;;17.77;11.88;;;22.70;99.90;;;;;;5037316;28;20045;-83
2022/08/15 07:22:51;;;;;;;21.33;11.95;;;23.00;99.90;;;;;;5038246;28;20102;-83
2022/08/15 07:25:20;;;;;;;42.13;13.73;;;23.30;99.90;;;;;;5020569;28;20045;-83
2022/08/15 07:27:55;;;;;;;16.33;11.60;;;23.70;99.90;;;;;;5036886;28;20084;-83
2022/08/15 07:30:27;;;;;;;12.02;10.30;;;24.10;99.90;;;;;;5036795;28;20045;-84
2022/08/15 07:32:55;;;;;;;12.50;11.20;;;24.40;99.90;;;;;;5020312;28;20038;-83
2022/08/15 07:35:32;;;;;;;14.77;11.70;;;24.70;99.90;;;;;;5020708;28;20077;-83
2022/08/15 07:38:09;;;;;;;14.00;11.18;;;25.00;99.80;;;;;;5052908;28;20051;-83
2022/08/15 07:40:39;;;;;;;12.70;11.15;;;25.30;99.20;;;;;;5036413;28;20389;-83
2022/08/15 07:43:25;;;;;;;14.13;11.07;;;25.50;98.60;;;;;;5036391;28;20124;-83
2022/08/15 07:46:12;;;;;;;12.68;11.20;;;25.80;97.60;;;;;;5052641;28;20084;-83
2022/08/15 07:48:38;;;;;;;12.80;10.95;;;25.80;97.60;;;;;;5035800;28;20045;-83
2022/08/15 07:51:26;;;;;;;13.43;12.00;;;25.70;97.30;;;;;;5035837;28;20482;-82
2022/08/15 07:53:58;;;;;;;14.23;12.27;;;25.60;96.50;;;;;;5035417;28;20128;-83
2022/08/15 07:56:26;;;;;;;12.38;11.18;;;25.50;96.60;;;;;;5052133;28;20424;-83
2022/08/15 07:59:30;;;;;;;13.70;11.95;;;25.50;96.80;;;;;;5036042;28;20095;-83
2022/08/15 08:02:24;;;;;;;14.80;11.82;;;25.50;96.30;;;;;;5018722;28;20053;-83
2022/08/15 08:04:50;;;;;;;14.15;12.00;;;25.50;96.40;;;;;;5033759;28;20084;-83
2022/08/15 08:07:33;;;;;;;12.57;11.38;;;25.60;96.50;;;;;;5035717;28;20069;-83
2022/08/15 08:10:17;;;;;;;12.25;11.05;;;25.70;96.30;;;;;;5035929;28;20046;-83
2022/08/15 08:12:52;;;;;;;11.90;10.75;;;25.80;96.10;;;;;;5036114;28;20124;-83
2022/08/15 08:15:35;;;;;;;14.23;11.60;;;25.90;95.40;;;;;;5053695;28;20111;-83
2022/08/15 08:18:12;;;;;;;13.32;12.05;;;25.90;95.70;;;;;;5053305;28;20045;-83
2022/08/15 08:21:12;;;;;;;12.98;11.68;;;25.90;96.00;;;;;;5036405;28;20041;-83
2022/08/15 08:23:45;;;;;;;12.35;10.98;;;25.90;95.60;;;;;;5034440;28;20107;-83
2022/08/15 08:26:36;;;;;;;11.93;10.60;;;25.90;96.00;;;;;;5036649;28;20045;-83
2022/08/15 08:29:16;;;;;;;12.50;11.18;;;25.90;95.70;;;;;;5035902;28;20029;-83
2022/08/15 08:32:00;;;;;;;12.82;10.75;;;25.90;95.60;;;;;;5052378;28;20120;-83
2022/08/15 08:34:31;;;;;;;12.35;11.07;;;25.90;95.60;;;;;;5053153;28;20128;-83
2022/08/15 08:37:28;;;;;;;17.35;10.85;;;25.90;95.80;;;;;;5051512;28;20096;-83
2022/08/15 08:41:24;;;;;;;13.45;11.18;;;26.00;95.80;;;;;;5051898;28;20042;-83
2022/08/15 08:43:39;;;;;;;11.77;10.57;;;26.10;95.30;;;;;;5051714;28;20045;-83
2022/08/15 08:46:33;;;;;;;13.00;10.10;;;26.10;95.10;;;;;;5017478;28;20096;-83
2022/08/15 08:49:16;;;;;;;14.88;10.73;;;26.20;95.00;;;;;;5017474;28;20528;-83
2022/08/15 08:51:48;;;;;;;10.73;9.70;;;26.20;95.10;;;;;;5030750;28;20061;-83
2022/08/15 08:54:43;;;;;;;10.90;9.82;;;26.20;95.30;;;;;;5035038;28;20042;-83
2022/08/15 08:57:16;;;;;;;12.30;10.95;;;26.20;95.40;;;;;;5035124;28;20079;-83
2022/08/15 09:00:12;;;;;;;22.38;10.48;;;26.20;95.60;;;;;;5035574;28;20045;-82
2022/08/15 09:02:47;;;;;;;16.30;11.63;;;26.20;95.70;;;;;;5034562;28;20037;-83
2022/08/15 09:05:41;;;;;;;12.27;11.05;;;26.10;95.60;;;;;;5033899;28;20038;-82
2022/08/15 09:08:12;;;;;;;12.57;11.32;;;26.10;96.00;;;;;;5034526;28;20080;-83
2022/08/15 09:10:42;;;;;;;13.85;12.15;;;26.00;96.10;;;;;;5034695;28;20386;-82
2022/08/15 09:15:57;;;;;;;13.40;12.07;;;26.00;96.60;;;;;;5034788;28;20402;-83
2022/08/15 09:18:29;;;;;;;14.27;12.68;;;26.00;97.10;;;;;;5034641;28;20033;-83
2022/08/15 09:20:56;;;;;;;15.13;13.52;;;26.00;96.80;;;;;;5035135;28;20041;-83
2022/08/15 09:23:23;;;;;;;16.33;11.65;;;26.00;96.60;;;;;;5035240;28;20156;-83
2022/08/15 09:26:04;;;;;;;12.52;11.02;;;26.00;96.70;;;;;;5050922;28;20046;-83
2022/08/15 09:28:37;;;;;;;13.25;11.10;;;26.00;97.10;;;;;;5034578;28;20037;-83
2022/08/15 09:31:16;;;;;;;11.90;10.70;;;26.00;97.20;;;;;;5034531;28;20118;-83
2022/08/15 09:34:00;;;;;;;15.98;13.98;;;26.00;97.40;;;;;;5017644;28;20423;-83
2022/08/15 09:37:01;;;;;;;15.93;14.18;;;26.00;97.30;;;;;;5051043;28;20033;-83
2022/08/15 09:39:53;;;;;;;12.75;11.45;;;25.90;97.30;;;;;;5032654;28;20387;-83
2022/08/15 09:42:34;;;;;;;12.13;9.82;;;25.80;97.40;;;;;;5034296;28;20047;-83
2022/08/15 09:45:34;;;;;;;9.90;8.90;;;25.70;97.60;;;;;;5033952;28;20073;-83
2022/08/15 09:48:11;;;;;;;18.00;10.07;;;25.60;98.00;;;;;;5033872;28;20072;-83
2022/08/15 09:50:46;;;;;;;21.77;8.98;;;25.60;98.00;;;;;;5035156;28;20049;-83
2022/08/15 09:53:49;;;;;;;9.27;7.65;;;25.60;97.90;;;;;;5033868;28;20076;-84
2022/08/15 09:56:21;;;;;;;8.63;7.65;;;25.50;97.50;;;;;;5014705;28;20050;-83
2022/08/15 09:59:20;;;;;;;7.45;6.70;;;25.60;97.10;;;;;;5033921;28;20049;-83
2022/08/15 10:02:20;;;;;;;8.32;6.35;;;25.60;96.30;;;;;;5014543;28;20068;-83
2022/08/15 10:04:49;;;;;;;10.00;5.88;;;25.60;96.40;;;;;;5004471;28;20107;-83
2022/08/15 10:07:15;;;;;;;7.03;5.80;;;25.70;96.60;;;;;;5032796;28;20042;-83
2022/08/15 10:10:01;;;;;;;6.82;6.07;;;25.70;96.60;;;;;;5032380;28;20049;-83
2022/08/15 10:12:27;;;;;;;7.05;6.32;;;25.70;96.30;;;;;;4997571;28;20057;-83
2022/08/15 10:14:53;;;;;;;7.05;6.35;;;25.70;96.50;;;;;;5035017;28;20042;-83
2022/08/15 10:17:37;;;;;;;6.70;5.97;;;25.80;96.30;;;;;;5034495;28;20128;-83
2022/08/15 10:20:29;;;;;;;7.93;6.20;;;25.80;95.80;;;;;;5033530;28;20041;-83
2022/08/15 10:22:57;;;;;;;8.55;7.47;;;25.90;95.80;;;;;;5018466;28;20064;-83
2022/08/15 10:25:26;;;;;;;9.18;7.38;;;26.00;95.90;;;;;;5035142;28;20502;-84
2022/08/15 10:28:28;;;;;;;9.20;7.55;;;26.10;96.10;;;;;;5034212;28;20048;-83
2022/08/15 10:31:01;;;;;;;10.60;7.70;;;26.20;95.90;;;;;;4964086;28;20078;-83
2022/08/15 10:33:38;;;;;;;7.72;6.90;;;26.30;95.90;;;;;;5010736;28;20049;-83
2022/08/15 10:36:16;;;;;;;24.23;8.52;;;26.30;95.70;;;;;;5054270;28;20052;-83
2022/08/15 10:38:50;;;;;;;13.45;6.78;;;26.30;95.70;;;;;;5054065;28;20064;-82
2022/08/15 10:41:31;;;;;;;8.02;7.22;;;26.30;95.90;;;;;;5070415;28;20053;-82
2022/08/15 10:44:05;;;;;;;10.45;7.68;;;26.40;95.80;;;;;;5052804;28;20063;-84
2022/08/15 10:46:38;;;;;;;9.00;8.10;;;26.40;95.80;;;;;;5043790;28;20492;-84
2022/08/15 10:49:13;;;;;;;10.07;7.03;;;26.50;95.70;;;;;;5034275;28;20049;-83
2022/08/15 10:51:54;;;;;;;8.60;7.70;;;26.40;95.70;;;;;;5041364;28;20038;-83
2022/08/15 10:54:54;;;;;;;9.07;7.50;;;26.50;95.90;;;;;;5034661;28;20095;-84
2022/08/15 10:57:23;;;;;;;12.88;7.95;;;26.50;95.80;;;;;;5033397;28;20103;-83
2022/08/15 10:59:53;;;;;;;10.10;6.63;;;26.50;95.80;;;;;;5033711;28;20049;-83
2022/08/15 11:02:33;;;;;;;17.23;7.13;;;26.50;95.80;;;;;;5033016;28;20378;-83
2022/08/15 11:05:05;;;;;;;11.02;6.38;;;26.40;95.60;;;;;;5049523;28;20504;-83
2022/08/15 11:07:35;;;;;;;6.80;6.03;;;26.40;95.30;;;;;;5032170;28;20128;-83
2022/08/15 11:10:09;;;;;;;9.05;7.07;;;26.40;95.40;;;;;;5032204;28;20095;-83
2022/08/15 11:12:40;;;;;;;7.72;6.93;;;26.40;95.40;;;;;;5049155;28;20342;-83
2022/08/15 11:15:18;;;;;;;11.57;7.63;;;26.40;95.50;;;;;;5049392;28;20522;-83
2022/08/15 11:17:47;;;;;;;9.70;7.65;;;26.40;95.70;;;;;;5034077;28;20042;-83
2022/08/15 11:20:17;;;;;;;7.72;6.43;;;26.40;95.60;;;;;;5033555;28;20077;-83
2022/08/15 11:22:58;;;;;;;8.65;7.53;;;26.50;95.70;;;;;;5051050;28;20046;-83
2022/08/15 11:25:34;;;;;;;8.18;6.68;;;26.50;95.60;;;;;;5032934;28;20049;-83
2022/08/15 11:28:04;;;;;;;7.03;6.05;;;26.60;95.70;;;;;;5032867;28;20037;-83
2022/08/15 11:30:33;;;;;;;8.80;5.82;;;26.60;95.80;;;;;;5052865;28;20044;-83
2022/08/15 11:33:34;;;;;;;8.98;5.85;;;26.60;95.60;;;;;;5053943;28;20034;-82
2022/08/15 11:36:06;;;;;;;7.20;5.70;;;26.70;95.10;;;;;;5037071;28;20041;-83
2022/08/15 11:38:35;;;;;;;6.53;4.95;;;26.70;95.30;;;;;;5036349;28;20038;-83
2022/08/15 11:41:02;;;;;;;7.70;5.18;;;26.70;95.10;;;;;;5036966;28;20049;-83
2022/08/15 11:43:29;;;;;;;7.20;4.82;;;26.70;95.00;;;;;;5037447;28;20056;-83
2022/08/15 11:45:57;;;;;;;7.88;5.10;;;26.80;94.90;;;;;;5036709;28;20422;-83
2022/08/15 11:48:29;;;;;;;6.65;4.80;;;26.80;94.50;;;;;;5037030;28;20100;-83
2022/08/15 11:51:01;;;;;;;6.90;5.10;;;26.80;94.10;;;;;;5036572;28;20048;-83
2022/08/15 11:53:31;;;;;;;7.63;4.82;;;26.90;93.80;;;;;;5036231;28;20037;-83
2022/08/15 11:55:58;;;;;;;6.97;5.00;;;27.00;94.20;;;;;;5052792;28;20037;-83
2022/08/15 11:58:44;;;;;;;6.00;4.05;;;27.10;94.00;;;;;;5003432;28;20037;-83
2022/08/15 12:01:21;;;;;;;;;;;27.20;94.00;;;;;;5020512;28;20067;-83
2022/08/15 12:04:07;;;;;;;7.22;4.10;;;27.30;92.60;;;;;;5019513;28;19917;-83
2022/08/15 12:06:37;;;;;;;10.48;4.15;;;27.40;92.70;;;;;;5052595;28;20064;-83
2022/08/15 12:09:21;;;;;;;7.22;4.30;;;27.60;92.80;;;;;;5052845;28;20489;-83
2022/08/15 12:11:49;;;;;;;7.53;4.10;;;27.70;91.30;;;;;;5036198;28;20128;-83
2022/08/15 12:14:15;;;;;;;6.88;4.75;;;27.70;91.30;;;;;;5052581;28;20041;-83
2022/08/15 12:17:05;;;;;;;4.95;4.32;;;27.80;91.30;;;;;;5036106;28;20098;-83
2022/08/15 12:19:37;;;;;;;6.32;5.07;;;27.80;90.50;;;;;;5014231;28;20068;-83
2022/08/15 12:22:13;;;;;;;5.47;4.90;;;27.90;90.70;;;;;;5035965;28;20190;-83
2022/08/15 12:24:41;;;;;;;6.10;4.93;;;27.90;90.60;;;;;;5036544;28;20073;-83
2022/08/15 12:27:07;;;;;;;6.82;5.30;;;27.90;90.70;;;;;;5019838;28;20041;-80
2022/08/15 12:29:33;;;;;;;9.38;4.72;;;28.00;90.70;;;;;;5002820;28;20038;-79
2022/08/15 12:32:02;;;;;;;8.20;4.50;;;28.00;90.90;;;;;;5035025;28;20034;-79
2022/08/15 12:34:34;;;;;;;5.80;4.00;;;27.90;90.80;;;;;;5034721;28;20042;-79
2022/08/15 12:37:02;;;;;;;7.47;4.78;;;28.00;90.70;;;;;;5034429;28;20077;-79
2022/08/15 12:39:27;;;;;;;5.55;4.18;;;27.90;90.40;;;;;;5034568;28;20046;-79
2022/08/15 12:41:54;;;;;;;6.30;4.35;;;27.90;90.40;;;;;;5034769;28;20048;-79
2022/08/15 12:44:25;;;;;;;8.27;4.22;;;27.90;90.20;;;;;;5018487;28;20097;-79
2022/08/15 12:46:52;;;;;;;7.32;3.88;;;27.90;90.20;;;;;;5051598;28;20065;-79
2022/08/15 12:49:18;;;;;;;4.18;3.75;;;28.00;90.30;;;;;;5002911;28;20052;-79
2022/08/15 12:51:44;;;;;;;4.60;3.67;;;28.10;90.20;;;;;;5034785;28;20041;-79
2022/08/15 12:54:10;;;;;;;5.65;4.03;;;28.40;90.20;;;;;;5018183;28;20091;-79
2022/08/15 12:56:36;;;;;;;3.95;3.55;;;28.60;90.10;;;;;;5017882;28;20038;-79
2022/08/15 12:59:05;;;;;;;5.47;4.05;;;28.70;90.10;;;;;;5018165;28;20037;-79
2022/08/15 13:01:41;;;;;;;7.45;4.20;;;29.10;89.90;;;;;;5034258;28;20053;-79
2022/08/15 13:04:10;;;;;;;7.05;4.10;;;29.40;89.50;;;;;;5035244;28;20068;-83
2022/08/15 13:06:48;;;;;;;6.07;4.13;;;29.70;88.90;;;;;;5035727;28;20069;-83
2022/08/15 13:09:16;;;;;;;6.45;3.80;;;29.90;87.10;;;;;;5052034;28;20049;-83
2022/08/15 13:11:43;;;;;;;8.60;3.67;;;29.90;84.60;;;;;;5002484;28;20486;-84
2022/08/15 13:14:10;;;;;;;3.55;3.20;;;29.80;83.80;;;;;;5034994;28;20481;-83